createdAt,value
2023-04-27T00:01:06.362Z,98571.00
2023-04-27T00:03:33.073Z,98579.84
2023-04-27T00:05:59.974Z,98580.16
2023-04-27T00:08:26.742Z,98578.09
2023-04-27T00:10:53.218Z,98580.78
2023-04-27T00:13:19.720Z,98577.28
2023-04-27T00:15:46.284Z,98574.03
2023-04-27T00:18:12.792Z,98574.94
2023-04-27T00:20:40.109Z,98575.06
2023-04-27T00:23:07.152Z,98575.25
2023-04-27T00:25:33.679Z,98575.34
2023-04-27T00:28:00.245Z,98576.34
2023-04-27T00:30:26.723Z,98581.13
2023-04-27T00:32:53.243Z,98583.91
2023-04-27T00:35:20.125Z,98575.94
2023-04-27T00:37:46.674Z,98572.75
2023-04-27T00:40:13.309Z,98577.72
2023-04-27T00:42:39.784Z,98571.34
2023-04-27T00:45:06.955Z,98573.56
2023-04-27T00:47:33.531Z,98572.34
2023-04-27T00:50:00.832Z,98570.78
2023-04-27T00:52:27.282Z,98571.34
2023-04-27T00:54:53.752Z,98572.97
2023-04-27T00:57:20.606Z,98575.13
2023-04-27T00:59:47.399Z,98564.34
2023-04-27T01:02:14.118Z,98570.38
2023-04-27T01:04:41.445Z,98569.38
2023-04-27T01:07:08.139Z,98568.31
2023-04-27T01:09:34.845Z,98565.63
2023-04-27T01:12:01.597Z,98572.97
2023-04-27T01:14:28.059Z,98566.47
2023-04-27T01:16:54.672Z,98576.06
2023-04-27T01:19:21.159Z,98568.00
2023-04-27T01:21:47.608Z,98567.09
2023-04-27T01:24:14.128Z,98567.50
2023-04-27T01:26:40.580Z,98571.09
2023-04-27T01:29:07.096Z,98578.94
2023-04-27T01:31:34.054Z,98579.28
2023-04-27T01:34:00.603Z,98574.69
2023-04-27T01:36:27.778Z,98584.53
2023-04-27T01:38:54.264Z,98583.72
2023-04-27T01:41:20.830Z,98589.28
2023-04-27T01:43:47.325Z,98585.72
2023-04-27T01:46:14.646Z,98578.84
2023-04-27T01:48:42.032Z,98590.69
2023-04-27T01:51:08.677Z,98577.91
2023-04-27T01:53:35.220Z,98583.28
2023-04-27T01:56:01.815Z,98585.72
2023-04-27T01:58:28.598Z,98577.00
2023-04-27T02:00:55.178Z,98580.19
2023-04-27T02:03:22.140Z,98583.91
2023-04-27T02:05:48.851Z,98574.06
2023-04-27T02:08:15.381Z,98580.50
2023-04-27T02:10:43.421Z,98583.09
2023-04-27T02:13:09.971Z,98581.00
2023-04-27T02:15:36.651Z,98581.13
2023-04-27T02:18:03.893Z,98584.25
2023-04-27T02:20:33.597Z,98573.41
2023-04-27T02:23:01.009Z,98574.47
2023-04-27T02:25:27.933Z,98577.47
2023-04-27T02:27:55.120Z,98573.56
2023-04-27T02:30:22.368Z,98564.94
2023-04-27T02:32:49.687Z,98566.88
2023-04-27T02:35:16.245Z,98559.38
2023-04-27T02:37:42.756Z,98574.06
2023-04-27T02:40:09.958Z,98571.84
2023-04-27T02:42:38.907Z,98569.59
2023-04-27T02:45:09.020Z,98569.09
2023-04-27T02:47:35.706Z,98571.03
2023-04-27T02:50:02.790Z,98572.13
2023-04-27T02:52:29.274Z,98566.16
2023-04-27T02:54:55.742Z,98564.84
2023-04-27T02:57:22.239Z,98568.28
2023-04-27T02:59:48.780Z,98559.88
2023-04-27T03:02:15.674Z,98563.81
2023-04-27T03:04:42.317Z,98556.38
2023-04-27T03:07:09.009Z,98557.63
2023-04-27T03:09:35.598Z,98556.88
2023-04-27T03:12:02.609Z,98562.25
2023-04-27T03:14:29.188Z,98568.91
2023-04-27T03:16:57.329Z,98578.72
2023-04-27T03:19:23.959Z,98571.88
2023-04-27T03:21:50.737Z,98572.91
2023-04-27T03:24:17.268Z,98567.88
2023-04-27T03:26:43.780Z,98566.81
2023-04-27T03:29:10.254Z,98566.31
2023-04-27T03:31:36.921Z,98559.38
2023-04-27T03:34:03.509Z,98569.50
2023-04-27T03:36:30.005Z,98575.25
2023-04-27T03:38:56.566Z,98569.50
2023-04-27T03:41:23.038Z,98565.66
2023-04-27T03:43:50.855Z,98565.28
2023-04-27T03:46:17.403Z,98569.41
2023-04-27T03:48:43.985Z,98564.50
2023-04-27T03:51:10.500Z,98569.50
2023-04-27T03:53:36.981Z,98574.53
2023-04-27T03:56:03.750Z,98560.03
2023-04-27T03:58:30.238Z,98563.53
2023-04-27T04:00:57.297Z,98573.00
2023-04-27T04:03:23.970Z,98582.56
2023-04-27T04:05:50.615Z,98581.31
2023-04-27T04:08:17.135Z,98583.84
2023-04-27T04:10:43.635Z,98581.81
2023-04-27T04:13:10.247Z,98578.03
2023-04-27T04:15:36.703Z,98578.94
2023-04-27T04:18:03.392Z,98586.59
2023-04-27T04:20:29.911Z,98574.66
2023-04-27T04:22:56.332Z,98587.66
2023-04-27T04:25:22.864Z,98602.47
2023-04-27T04:27:49.418Z,98605.41
2023-04-27T04:30:16.549Z,98612.84
2023-04-27T04:32:45.013Z,98593.50
2023-04-27T04:35:11.926Z,98588.13
2023-04-27T04:37:38.698Z,98586.34
2023-04-27T04:40:09.880Z,98584.84
2023-04-27T04:42:37.692Z,98583.47
2023-04-27T04:45:04.766Z,98584.28
2023-04-27T04:47:32.349Z,98587.47
2023-04-27T04:49:59.040Z,98579.63
2023-04-27T04:52:25.622Z,98585.47
2023-04-27T04:54:53.220Z,98582.31
2023-04-27T04:57:19.902Z,98593.00
2023-04-27T04:59:46.387Z,98597.56
2023-04-27T05:02:12.886Z,98605.41
2023-04-27T05:04:39.418Z,98601.50
2023-04-27T05:07:06.840Z,98597.09
2023-04-27T05:09:33.378Z,98604.88
2023-04-27T05:12:02.014Z,98602.47
2023-04-27T05:14:28.574Z,98603.28
2023-04-27T05:16:55.140Z,98609.81
2023-04-27T05:19:21.751Z,98611.00
2023-04-27T05:21:48.528Z,98606.69
2023-04-27T05:24:15.057Z,98609.94
2023-04-27T05:26:42.828Z,98614.72
2023-04-27T05:29:09.406Z,98617.03
2023-04-27T05:31:36.295Z,98617.59
2023-04-27T05:34:02.860Z,98607.09
2023-04-27T05:36:29.358Z,98610.66
2023-04-27T05:38:56.231Z,98607.41
2023-04-27T05:41:23.775Z,98616.69
2023-04-27T05:43:50.272Z,98610.94
2023-04-27T05:46:16.966Z,98614.09
2023-04-27T05:48:43.544Z,98617.66
2023-04-27T05:51:10.140Z,98613.91
2023-04-27T05:53:36.670Z,98623.56
2023-04-27T05:56:04.603Z,98623.72
2023-04-27T05:58:31.295Z,98622.56
2023-04-27T06:00:57.832Z,98622.31
2023-04-27T06:03:25.056Z,98623.94
2023-04-27T06:05:59.663Z,98626.34
2023-04-27T06:08:27.049Z,98633.97
2023-04-27T06:10:54.092Z,98637.81
2023-04-27T06:13:21.124Z,98640.09
2023-04-27T06:15:48.016Z,98643.78
2023-04-27T06:18:14.588Z,98642.53
2023-04-27T06:20:42.009Z,98638.19
2023-04-27T06:23:08.848Z,98643.34
2023-04-27T06:25:37.508Z,98644.22
2023-04-27T06:28:04.257Z,98644.94
2023-04-27T06:30:30.893Z,98651.91
2023-04-27T06:32:57.335Z,98658.47
2023-04-27T06:35:23.795Z,98663.06
2023-04-27T06:37:50.290Z,98662.69
2023-04-27T06:40:16.943Z,98663.50
2023-04-27T06:42:43.485Z,98667.31
2023-04-27T06:45:10.683Z,98660.31
2023-04-27T06:47:37.159Z,98667.06
2023-04-27T06:50:04.282Z,98663.06
2023-04-27T06:52:33.182Z,98666.41
2023-04-27T06:54:59.762Z,98664.69
2023-04-27T06:57:26.428Z,98657.91
2023-04-27T06:59:52.883Z,98666.09
2023-04-27T07:02:19.572Z,98670.88
2023-04-27T07:04:46.612Z,98668.81
2023-04-27T07:07:13.381Z,98663.03
2023-04-27T07:09:39.810Z,98667.56
2023-04-27T07:12:06.658Z,98660.66
2023-04-27T07:14:33.913Z,98655.81
2023-04-27T07:17:00.471Z,98663.34
2023-04-27T07:19:26.995Z,98663.94
2023-04-27T07:21:53.744Z,98661.22
2023-04-27T07:24:20.640Z,98664.00
2023-04-27T07:26:48.096Z,98661.03
2023-04-27T07:29:26.613Z,98650.03
2023-04-27T07:31:54.576Z,98644.47
2023-04-27T07:34:21.229Z,98637.63
2023-04-27T07:36:47.663Z,98652.09
2023-04-27T07:39:15.024Z,98646.69
2023-04-27T07:41:42.109Z,98640.72
2023-04-27T07:44:08.618Z,98637.75
2023-04-27T07:46:35.154Z,98641.84
2023-04-27T07:49:02.425Z,98633.06
2023-04-27T07:51:28.985Z,98631.63
2023-04-27T07:53:56.338Z,98623.69
2023-04-27T07:56:22.822Z,98626.16
2023-04-27T07:58:49.312Z,98625.03
2023-04-27T08:01:15.844Z,98631.88
2023-04-27T08:03:42.414Z,98632.59
2023-04-27T08:06:09.618Z,98637.41
2023-04-27T08:08:36.346Z,98627.44
2023-04-27T08:11:03.110Z,98627.78
2023-04-27T08:13:29.702Z,98620.78
2023-04-27T08:15:59.306Z,98625.38
2023-04-27T08:18:26.348Z,98628.03
2023-04-27T08:20:53.340Z,98633.84
2023-04-27T08:23:20.102Z,98633.22
2023-04-27T08:25:47.152Z,98614.72
2023-04-27T08:28:15.125Z,98615.56
2023-04-27T08:30:42.856Z,98600.84
2023-04-27T08:33:09.530Z,98617.97
2023-04-27T08:35:36.107Z,98611.25
2023-04-27T08:38:02.714Z,98607.72
2023-04-27T08:40:29.533Z,98608.28
2023-04-27T08:42:58.298Z,98602.06
2023-04-27T08:45:26.377Z,98598.06
2023-04-27T08:47:53.957Z,98607.81
2023-04-27T08:50:20.496Z,98596.28
2023-04-27T08:52:48.032Z,98588.75
2023-04-27T08:55:16.737Z,98596.53
2023-04-27T08:57:54.146Z,98594.78
2023-04-27T09:00:21.041Z,98595.88
2023-04-27T09:02:48.752Z,98596.13
2023-04-27T09:05:24.790Z,98594.56
2023-04-27T09:07:59.184Z,98596.47
2023-04-27T09:10:25.768Z,98596.84
2023-04-27T09:13:00.970Z,98603.09
2023-04-27T09:15:28.772Z,98599.56
2023-04-27T09:17:57.071Z,98606.44
2023-04-27T09:20:24.368Z,98597.66
2023-04-27T09:22:58.355Z,98595.97
2023-04-27T09:25:31.377Z,98599.88
2023-04-27T09:28:00.033Z,98601.28
2023-04-27T09:30:28.023Z,98602.50
2023-04-27T09:33:01.619Z,98599.56
2023-04-27T09:35:31.424Z,98600.13
2023-04-27T09:37:58.554Z,98594.78
2023-04-27T09:40:28.198Z,98586.41
2023-04-27T09:42:56.906Z,98590.06
2023-04-27T09:45:25.329Z,98588.63
2023-04-27T09:47:52.869Z,98587.63
2023-04-27T09:50:19.889Z,98582.81
2023-04-27T09:52:47.098Z,98575.88
2023-04-27T09:55:19.966Z,98577.88
2023-04-27T09:57:55.730Z,98586.88
2023-04-27T10:00:39.471Z,98578.13
2023-04-27T10:03:25.531Z,98577.69
2023-04-27T10:06:29.503Z,98580.44
2023-04-27T10:08:57.131Z,98577.81
2023-04-27T10:11:38.562Z,98573.16
2023-04-27T10:14:09.552Z,98578.56
2023-04-27T10:16:57.175Z,98570.63
2023-04-27T10:19:24.990Z,98568.84
2023-04-27T10:22:07.982Z,98569.88
2023-04-27T10:24:36.185Z,98562.84
2023-04-27T10:27:05.853Z,98568.13
2023-04-27T10:29:36.982Z,98564.19
2023-04-27T10:32:08.948Z,98556.72
2023-04-27T10:34:39.430Z,98549.72
2023-04-27T10:37:11.017Z,98553.97
2023-04-27T10:39:48.610Z,98557.81
2023-04-27T10:42:28.415Z,98554.69
2023-04-27T10:44:57.774Z,98560.38
2023-04-27T10:47:24.839Z,98551.59
2023-04-27T10:49:54.365Z,98554.50
2023-04-27T10:52:21.027Z,98550.56
2023-04-27T10:54:47.726Z,98543.81
2023-04-27T10:57:14.312Z,98548.34
2023-04-27T10:59:51.833Z,98539.41
2023-04-27T11:02:26.553Z,98536.94
2023-04-27T11:04:53.192Z,98548.78
2023-04-27T11:07:27.725Z,98543.94
2023-04-27T11:09:55.335Z,98542.41
2023-04-27T11:12:22.351Z,98541.31
2023-04-27T11:14:48.960Z,98536.22
2023-04-27T11:17:15.473Z,98525.72
2023-04-27T11:19:47.035Z,98510.66
2023-04-27T11:22:16.896Z,98530.13
2023-04-27T11:24:50.430Z,98517.47
2023-04-27T11:27:17.999Z,98517.50
2023-04-27T11:29:44.904Z,98518.66
2023-04-27T11:32:21.779Z,98513.94
2023-04-27T11:34:53.773Z,98513.88
2023-04-27T11:37:24.841Z,98518.00
2023-04-27T11:39:52.432Z,98511.75
2023-04-27T11:42:24.160Z,98509.31
2023-04-27T11:45:01.085Z,98509.72
2023-04-27T11:47:30.110Z,98516.94
2023-04-27T11:50:00.610Z,98506.88
2023-04-27T11:52:34.279Z,98504.53
2023-04-27T11:55:02.131Z,98500.56
2023-04-27T11:57:31.314Z,98503.25
2023-04-27T12:00:00.426Z,98492.25
2023-04-27T12:02:28.638Z,98497.81
2023-04-27T12:04:55.624Z,98501.88
2023-04-27T12:07:22.231Z,98497.63
2023-04-27T12:09:48.792Z,98484.69
2023-04-27T12:12:18.320Z,98491.50
2023-04-27T12:14:46.001Z,98492.66
2023-04-27T12:17:12.794Z,98488.16
2023-04-27T12:19:39.408Z,98492.22
2023-04-27T12:22:06.153Z,98490.25
2023-04-27T12:24:32.709Z,98493.94
2023-04-27T12:26:59.709Z,98491.78
2023-04-27T12:29:26.177Z,98488.25
2023-04-27T12:31:53.290Z,98496.72
2023-04-27T12:34:20.187Z,98495.09
2023-04-27T12:36:47.136Z,98500.25
2023-04-27T12:39:16.095Z,98489.44
2023-04-27T12:41:50.396Z,98498.44
2023-04-27T12:44:18.941Z,98494.69
2023-04-27T12:46:48.235Z,98490.47
2023-04-27T12:49:15.571Z,98484.47
2023-04-27T12:51:42.407Z,98479.66
2023-04-27T12:54:10.613Z,98466.50
2023-04-27T12:56:37.154Z,98475.75
2023-04-27T12:59:04.057Z,98472.53
2023-04-27T13:01:31.501Z,98472.38
2023-04-27T13:04:05.961Z,98468.44
2023-04-27T13:06:32.759Z,98476.53
2023-04-27T13:08:59.760Z,98462.22
2023-04-27T13:11:27.141Z,98461.78
2023-04-27T13:13:54.902Z,98479.41
2023-04-27T13:16:22.771Z,98476.00
2023-04-27T13:18:51.991Z,98469.78
2023-04-27T13:21:18.949Z,98462.38
2023-04-27T13:23:45.424Z,98479.84
2023-04-27T13:26:11.936Z,98474.31
2023-04-27T13:28:38.441Z,98475.53
2023-04-27T13:31:06.027Z,98463.91
2023-04-27T13:33:34.490Z,98469.28
2023-04-27T13:36:02.459Z,98460.19
2023-04-27T13:38:29.050Z,98465.34
2023-04-27T13:40:55.510Z,98457.97
2023-04-27T13:43:22.272Z,98459.59
2023-04-27T13:45:50.777Z,98467.97
2023-04-27T13:48:17.342Z,98463.06
2023-04-27T13:50:43.888Z,98454.97
2023-04-27T13:53:10.412Z,98462.50
2023-04-27T13:55:37.217Z,98459.78
2023-04-27T13:58:04.005Z,98459.31
2023-04-27T14:00:34.714Z,98455.94
2023-04-27T14:03:01.675Z,98457.22
2023-04-27T14:05:28.742Z,98455.50
2023-04-27T14:07:55.366Z,98452.31
2023-04-27T14:10:22.666Z,98446.88
2023-04-27T14:12:49.281Z,98450.13
2023-04-27T14:15:15.932Z,98444.97
2023-04-27T14:17:42.660Z,98441.00
2023-04-27T14:20:09.245Z,98448.91
2023-04-27T14:22:36.971Z,98450.88
2023-04-27T14:25:03.607Z,98455.19
2023-04-27T14:27:30.102Z,98441.91
2023-04-27T14:29:56.620Z,98450.84
2023-04-27T14:32:23.461Z,98441.13
2023-04-27T14:34:50.105Z,98435.38
2023-04-27T14:37:16.708Z,98440.50
2023-04-27T14:39:45.259Z,98431.59
2023-04-27T14:42:12.104Z,98439.25
2023-04-27T14:44:38.657Z,98442.47
2023-04-27T14:47:06.403Z,98439.38
2023-04-27T14:49:32.975Z,98435.59
2023-04-27T14:52:03.178Z,98437.78
2023-04-27T14:54:29.665Z,98431.13
2023-04-27T14:56:58.160Z,98435.72
2023-04-27T14:59:25.395Z,98425.16
2023-04-27T15:01:52.250Z,98430.28
2023-04-27T15:04:20.104Z,98424.88
2023-04-27T15:06:47.015Z,98418.69
2023-04-27T15:09:13.672Z,98410.09
2023-04-27T15:11:40.492Z,98415.03
2023-04-27T15:14:08.479Z,98413.97
2023-04-27T15:16:35.048Z,98410.06
2023-04-27T15:19:01.618Z,98403.72
2023-04-27T15:21:28.119Z,98405.59
2023-04-27T15:23:54.620Z,98405.03
2023-04-27T15:26:21.392Z,98397.66
2023-04-27T15:28:47.980Z,98398.00
2023-04-27T15:31:14.510Z,98392.44
2023-04-27T15:33:41.182Z,98384.03
2023-04-27T15:36:07.843Z,98376.94
2023-04-27T15:38:34.340Z,98378.09
2023-04-27T15:41:00.950Z,98378.41
2023-04-27T15:43:27.423Z,98374.50
2023-04-27T15:45:54.008Z,98377.00
2023-04-27T15:48:20.650Z,98375.19
2023-04-27T15:50:47.160Z,98375.38
2023-04-27T15:53:13.679Z,98370.38
2023-04-27T15:55:40.649Z,98369.69
2023-04-27T15:58:07.101Z,98363.56
2023-04-27T16:00:35.099Z,98360.34
2023-04-27T16:03:01.828Z,98366.38
2023-04-27T16:05:28.586Z,98352.69
2023-04-27T16:07:55.056Z,98355.47
2023-04-27T16:10:21.912Z,98341.16
2023-04-27T16:12:48.399Z,98348.41
2023-04-27T16:15:15.015Z,98339.41
2023-04-27T16:17:41.728Z,98332.50
2023-04-27T16:20:09.423Z,98348.28
2023-04-27T16:22:37.012Z,98349.69
2023-04-27T16:25:06.562Z,98352.91
2023-04-27T16:27:33.519Z,98349.72
2023-04-27T16:30:00.083Z,98359.56
2023-04-27T16:32:26.937Z,98357.25
2023-04-27T16:34:53.797Z,98359.16
2023-04-27T16:37:20.431Z,98361.09
2023-04-27T16:39:46.971Z,98365.59
2023-04-27T16:42:18.571Z,98368.97
2023-04-27T16:44:45.208Z,98361.72
2023-04-27T16:47:12.064Z,98364.63
2023-04-27T16:49:38.651Z,98366.91
2023-04-27T16:52:05.404Z,98367.38
2023-04-27T16:54:31.944Z,98380.44
2023-04-27T16:56:58.503Z,98371.06
2023-04-27T16:59:25.076Z,98375.56
2023-04-27T17:01:52.117Z,98366.06
2023-04-27T17:04:18.782Z,98375.91
2023-04-27T17:06:48.500Z,98380.22
2023-04-27T17:09:15.309Z,98379.13
2023-04-27T17:11:42.214Z,98377.81
2023-04-27T17:14:08.798Z,98380.06
2023-04-27T17:16:35.300Z,98374.88
2023-04-27T17:19:02.207Z,98384.44
2023-04-27T17:21:28.801Z,98377.63
2023-04-27T17:23:55.634Z,98370.53
2023-04-27T17:26:22.700Z,98369.91
2023-04-27T17:28:49.547Z,98373.03
2023-04-27T17:31:17.517Z,98374.03
2023-04-27T17:33:44.107Z,98378.16
2023-04-27T17:36:11.273Z,98378.63
2023-04-27T17:38:37.844Z,98369.75
2023-04-27T17:41:04.398Z,98368.88
2023-04-27T17:43:30.884Z,98368.97
2023-04-27T17:45:57.376Z,98362.56
2023-04-27T17:48:24.479Z,98362.31
2023-04-27T17:50:51.153Z,98370.94
2023-04-27T17:53:17.687Z,98362.88
2023-04-27T17:55:45.537Z,98369.16
2023-04-27T17:58:12.245Z,98375.00
2023-04-27T18:00:39.124Z,98379.47
2023-04-27T18:03:05.832Z,98382.00
2023-04-27T18:05:32.653Z,98373.66
2023-04-27T18:07:59.154Z,98370.22
2023-04-27T18:10:25.699Z,98374.66
2023-04-27T18:12:52.132Z,98373.31
2023-04-27T18:15:19.609Z,98377.13
2023-04-27T18:17:46.160Z,98373.22
2023-04-27T18:20:12.796Z,98381.81
2023-04-27T18:22:40.176Z,98377.03
2023-04-27T18:25:10.442Z,98377.03
2023-04-27T18:27:39.446Z,98383.63
2023-04-27T18:30:07.777Z,98393.13
2023-04-27T18:32:34.823Z,98386.69
2023-04-27T18:35:02.324Z,98384.56
2023-04-27T18:37:29.227Z,98386.50
2023-04-27T18:39:55.707Z,98377.28
2023-04-27T18:42:23.611Z,98384.28
2023-04-27T18:44:54.752Z,98374.78
2023-04-27T18:47:21.444Z,98385.28
2023-04-27T18:49:48.251Z,98387.91
2023-04-27T18:52:14.812Z,98374.06
2023-04-27T18:54:42.153Z,98395.97
2023-04-27T18:57:08.684Z,98390.00
2023-04-27T18:59:37.655Z,98387.38
2023-04-27T19:02:04.146Z,98385.06
2023-04-27T19:04:30.778Z,98377.16
2023-04-27T19:06:57.273Z,98381.59
2023-04-27T19:09:23.841Z,98383.31
2023-04-27T19:12:00.044Z,98380.13
2023-04-27T19:14:30.811Z,98382.19
2023-04-27T19:16:57.340Z,98390.53
2023-04-27T19:19:26.435Z,98385.69
2023-04-27T19:21:53.343Z,98383.16
2023-04-27T19:24:19.864Z,98380.31
2023-04-27T19:26:48.387Z,98376.44
2023-04-27T19:29:15.383Z,98376.00
2023-04-27T19:31:42.595Z,98378.22
2023-04-27T19:34:09.256Z,98372.66
2023-04-27T19:36:35.814Z,98376.97
2023-04-27T19:39:02.276Z,98378.16
2023-04-27T19:41:28.828Z,98398.06
2023-04-27T19:43:55.496Z,98397.78
2023-04-27T19:46:22.062Z,98398.97
2023-04-27T19:48:49.706Z,98399.19
2023-04-27T19:51:16.537Z,98399.09
2023-04-27T19:53:43.023Z,98407.56
2023-04-27T19:56:09.540Z,98420.75
2023-04-27T19:58:37.119Z,98419.28
2023-04-27T20:01:04.086Z,98409.59
2023-04-27T20:03:30.881Z,98413.69
2023-04-27T20:05:57.723Z,98417.28
2023-04-27T20:08:24.980Z,98420.16
2023-04-27T20:10:51.548Z,98425.25
2023-04-27T20:13:18.074Z,98422.03
2023-04-27T20:15:44.682Z,98423.69
2023-04-27T20:18:11.344Z,98427.66
2023-04-27T20:20:37.947Z,98437.03
2023-04-27T20:23:04.455Z,98427.22
2023-04-27T20:25:31.011Z,98440.66
2023-04-27T20:27:57.465Z,98425.00
2023-04-27T20:30:24.054Z,98419.69
2023-04-27T20:32:50.670Z,98412.72
2023-04-27T20:35:17.496Z,98402.03
2023-04-27T20:37:44.249Z,98399.47
2023-04-27T20:40:14.445Z,98402.25
2023-04-27T20:42:42.531Z,98394.28
2023-04-27T20:45:11.409Z,98392.19
2023-04-27T20:47:38.235Z,98388.88
2023-04-27T20:50:06.306Z,98392.66
2023-04-27T20:52:34.575Z,98389.59
2023-04-27T20:55:01.587Z,98383.38
2023-04-27T20:57:28.097Z,98393.47
2023-04-27T20:59:55.150Z,98390.72
2023-04-27T21:02:21.657Z,98386.34
2023-04-27T21:04:48.247Z,98393.38
2023-04-27T21:07:14.855Z,98394.59
2023-04-27T21:09:41.635Z,98396.19
2023-04-27T21:12:08.747Z,98393.78
2023-04-27T21:14:35.295Z,98388.16
2023-04-27T21:17:01.892Z,98384.94
2023-04-27T21:19:28.385Z,98382.78
2023-04-27T21:21:54.848Z,98380.09
2023-04-27T21:24:21.532Z,98390.97
2023-04-27T21:26:48.193Z,98379.59
2023-04-27T21:29:14.667Z,98390.03
2023-04-27T21:31:41.280Z,98379.41
2023-04-27T21:34:08.198Z,98383.47
2023-04-27T21:36:34.837Z,98377.03
2023-04-27T21:39:01.330Z,98376.81
2023-04-27T21:41:27.808Z,98368.31
2023-04-27T21:43:54.365Z,98371.53
2023-04-27T21:46:23.019Z,98360.25
2023-04-27T21:48:49.580Z,98358.78
2023-04-27T21:51:16.088Z,98363.06
2023-04-27T21:53:42.558Z,98362.81
2023-04-27T21:56:09.000Z,98362.06
2023-04-27T21:58:35.438Z,98364.84
2023-04-27T22:01:02.325Z,98358.78
2023-04-27T22:03:29.010Z,98357.78
2023-04-27T22:05:57.551Z,98354.13
2023-04-27T22:08:24.149Z,98357.78
2023-04-27T22:10:50.895Z,98341.78
2023-04-27T22:13:19.402Z,98345.66
2023-04-27T22:15:46.555Z,98356.53
2023-04-27T22:18:14.390Z,98350.00
2023-04-27T22:20:41.556Z,98352.44
2023-04-27T22:23:09.234Z,98351.97
2023-04-27T22:25:35.763Z,98352.44
2023-04-27T22:28:02.283Z,98351.63
2023-04-27T22:30:29.459Z,98355.00
2023-04-27T22:32:56.818Z,98361.53
2023-04-27T22:35:27.044Z,98356.41
2023-04-27T22:37:58.942Z,98360.22
2023-04-27T22:40:25.665Z,98361.34
2023-04-27T22:42:53.181Z,98363.75
2023-04-27T22:45:19.682Z,98360.78
2023-04-27T22:47:46.329Z,98365.19
2023-04-27T22:50:13.557Z,98351.88
2023-04-27T22:52:42.260Z,98360.25
2023-04-27T22:55:10.443Z,98361.59
2023-04-27T22:57:37.330Z,98353.19
2023-04-27T23:00:11.837Z,98356.97
2023-04-27T23:02:42.831Z,98344.59
2023-04-27T23:05:11.028Z,98340.22
2023-04-27T23:07:37.872Z,98345.84
2023-04-27T23:10:05.840Z,98354.03
2023-04-27T23:12:32.480Z,98359.69
2023-04-27T23:14:59.326Z,98346.72
2023-04-27T23:17:30.592Z,98347.75
2023-04-27T23:20:01.934Z,98343.78
2023-04-27T23:22:29.457Z,98344.63
2023-04-27T23:24:56.260Z,98344.63
2023-04-27T23:27:24.674Z,98346.28
2023-04-27T23:29:51.336Z,98347.91
2023-04-27T23:32:17.908Z,98348.41
2023-04-27T23:34:44.475Z,98351.94
2023-04-27T23:37:11.200Z,98349.50
2023-04-27T23:39:38.290Z,98339.53
2023-04-27T23:42:04.834Z,98345.78
2023-04-27T23:44:31.378Z,98346.78
2023-04-27T23:46:58.398Z,98338.97
2023-04-27T23:49:24.851Z,98342.47
2023-04-27T23:51:52.430Z,98340.06
2023-04-27T23:54:19.085Z,98338.16
2023-04-27T23:56:45.567Z,98336.00
2023-04-27T23:59:12.101Z,98339.78
